This is the latest recevied weather packets stored in our database for station/object DJ4RO-13. If no packets are shown the sender has not sent any weather packets the latest 10 day(s).
| Time | Temp. | Humidity | Pressure | Rain* | Wind** | Luminosity | Snow |
|---|---|---|---|---|---|---|---|
| 1776939966 | 10° C | 73% | 1028.8 hPa | 0 mm | - | 582 W/m² | - |
| 1776939646 | 10° C | 72% | 1028.7 hPa | 0 mm | - | 579 W/m² | - |
| 1776939328 | 9.44° C | 74% | 1029 hPa | 0 mm | - | 561 W/m² | - |
| 1776939006 | 8.89° C | 74% | 1028.9 hPa | 0 mm | - | 575 W/m² | - |
| 1776938686 | 9.44° C | 72% | 1029.2 hPa | 0 mm | - | 576 W/m² | - |
| 1776938350 | 9.44° C | 74% | 1028.9 hPa | 0 mm | - | 328 W/m² | - |
| 1776938031 | 9.44° C | 74% | 1029.3 hPa | 0 mm | - | 565 W/m² | - |
| 1776937710 | 8.89° C | 74% | 1029.1 hPa | 0 mm | - | 557 W/m² | - |
| 1776937390 | 10° C | 73% | 1029.3 hPa | 0 mm | - | 551 W/m² | - |
| 1776937070 | 9.44° C | 73% | 1029.4 hPa | 0 mm | - | 561 W/m² | - |
| 1776936750 | 9.44° C | 75% | 1029.4 hPa | 0 mm | - | 600 W/m² | - |
| 1776936430 | 8.89° C | 75% | 1029.5 hPa | 0 mm | - | 566 W/m² | - |
| 1776936110 | 8.89° C | 75% | 1029.4 hPa | 0 mm | - | 558 W/m² | - |
| 1776935790 | 8.33° C | 75% | 1029.6 hPa | 0 mm | - | 470 W/m² | - |
| 1776935471 | 8.89° C | 75% | 1029.6 hPa | 0 mm | - | 601 W/m² | - |
| 1776935150 | 8.33° C | 76% | 1029.6 hPa | 0 mm | - | 461 W/m² | - |
| 1776934830 | 7.78° C | 77% | 1029.6 hPa | 0 mm | - | 258 W/m² | - |
| 1776934495 | 7.78° C | 77% | 1029.5 hPa | 0 mm | - | 247 W/m² | - |
| 1776934172 | 7.78° C | 78% | 1029.8 hPa | 0 mm | - | 429 W/m² | - |
| 1776933855 | 7.78° C | 77% | 1029.8 hPa | 0 mm | - | 460 W/m² | - |
| 1776933534 | 7.78° C | 77% | 1029.4 hPa | 0 mm | - | 218 W/m² | - |
| 1776933212 | 7.78° C | 77% | 1029.8 hPa | 0 mm | - | 513 W/m² | - |
| 1776932894 | 7.78° C | 78% | 1029.6 hPa | 0 mm | - | 303 W/m² | - |
| 1776932574 | 7.78° C | 78% | 1029.3 hPa | 0 mm | - | 210 W/m² | - |
| 1776932252 | 8.33° C | 77% | 1029.3 hPa | 0 mm | - | 543 W/m² | - |
* Rain latest hour (hover to see other rain measurements)
** Current wind speed in m/s (hover to see current wind gust speed)